createdAt,value
2019-05-21T00:01:29.453Z,13.50
2019-05-21T00:03:59.026Z,13.50
2019-05-21T00:06:28.603Z,13.60
2019-05-21T00:08:58.182Z,13.50
2019-05-21T00:11:27.781Z,13.60
2019-05-21T00:13:57.333Z,13.60
2019-05-21T00:16:26.852Z,13.60
2019-05-21T00:18:56.427Z,13.50
2019-05-21T00:21:26.006Z,13.50
2019-05-21T00:23:55.546Z,13.50
2019-05-21T00:26:25.099Z,13.50
2019-05-21T00:29:30.648Z,13.40
2019-05-21T00:32:35.957Z,13.40
2019-05-21T00:35:47.923Z,13.40
2019-05-21T00:38:53.412Z,13.40
2019-05-21T00:41:59.200Z,13.40
2019-05-21T00:44:42.189Z,13.40
2019-05-21T00:47:12.975Z,13.40
2019-05-21T00:49:42.527Z,13.30
2019-05-21T00:52:12.066Z,13.40
2019-05-21T00:54:41.679Z,13.30
2019-05-21T00:57:11.819Z,13.30
2019-05-21T00:59:41.466Z,13.30
2019-05-21T01:02:10.997Z,13.30
2019-05-21T01:04:40.561Z,13.40
2019-05-21T01:07:10.126Z,13.40
2019-05-21T01:09:39.689Z,13.40
2019-05-21T01:12:09.597Z,13.40
2019-05-21T01:14:39.127Z,13.40
2019-05-21T01:17:08.687Z,13.40
2019-05-21T01:19:38.258Z,13.40
2019-05-21T01:22:07.790Z,13.40
2019-05-21T01:24:37.368Z,13.30
2019-05-21T01:27:06.908Z,13.30
2019-05-21T01:29:36.483Z,13.40
2019-05-21T01:32:06.032Z,13.40
2019-05-21T01:34:35.678Z,13.40
2019-05-21T01:37:05.282Z,13.40
2019-05-21T01:39:34.889Z,13.30
2019-05-21T01:42:04.396Z,13.30
2019-05-21T01:44:52.990Z,13.30
2019-05-21T01:47:22.601Z,13.30
2019-05-21T01:49:52.161Z,13.20
2019-05-21T01:52:21.698Z,13.20
2019-05-21T01:54:51.456Z,13.20
2019-05-21T01:57:20.161Z,13.20
2019-05-21T01:59:49.713Z,13.10
2019-05-21T02:02:19.289Z,13.10
2019-05-21T02:04:48.827Z,13.10
2019-05-21T02:07:18.357Z,13.10
2019-05-21T02:10:00.031Z,13.20
2019-05-21T02:12:29.585Z,13.20
2019-05-21T02:14:59.223Z,13.10
2019-05-21T02:17:28.732Z,13.20
2019-05-21T02:19:58.288Z,13.30
2019-05-21T02:22:27.888Z,13.20
2019-05-21T02:24:57.432Z,13.20
2019-05-21T02:27:27.011Z,13.20
2019-05-21T02:29:56.561Z,13.10
2019-05-21T02:32:26.174Z,13.10
2019-05-21T02:34:55.738Z,13.10
2019-05-21T02:37:25.284Z,13.20
2019-05-21T02:39:54.818Z,13.20
2019-05-21T02:42:24.331Z,13.20
2019-05-21T02:44:54.703Z,13.10
2019-05-21T02:47:24.540Z,13.10
2019-05-21T02:49:54.179Z,13.10
2019-05-21T02:52:23.724Z,13.20
2019-05-21T02:54:53.241Z,13.20
2019-05-21T02:57:24.365Z,13.10
2019-05-21T02:59:55.862Z,13.10
2019-05-21T03:02:37.739Z,13.10
2019-05-21T03:05:07.493Z,13.00
2019-05-21T03:07:37.034Z,13.00
2019-05-21T03:10:06.586Z,13.00
2019-05-21T03:12:36.108Z,13.00
2019-05-21T03:15:05.927Z,13.00
2019-05-21T03:17:35.444Z,13.00
2019-05-21T03:20:05.082Z,13.10
2019-05-21T03:22:53.683Z,13.10
2019-05-21T03:25:23.187Z,13.00
2019-05-21T03:28:05.985Z,13.00
2019-05-21T03:30:35.525Z,13.00
2019-05-21T03:33:05.073Z,13.00
2019-05-21T03:35:34.603Z,13.00
2019-05-21T03:38:04.138Z,13.00
2019-05-21T03:40:33.657Z,13.00
2019-05-21T03:43:03.232Z,13.00
2019-05-21T03:48:13.212Z,13.00
2019-05-21T03:51:01.766Z,13.00
2019-05-21T03:53:31.391Z,13.00
2019-05-21T03:56:01.015Z,13.10
2019-05-21T03:58:30.559Z,13.10
2019-05-21T04:01:00.173Z,13.10
2019-05-21T04:03:29.845Z,13.10
2019-05-21T04:05:59.417Z,13.10
2019-05-21T04:08:29.000Z,13.10
2019-05-21T04:10:59.325Z,13.10
2019-05-21T04:13:28.980Z,13.10
2019-05-21T04:16:14.083Z,13.10
2019-05-21T04:19:08.196Z,13.10
2019-05-21T04:21:37.765Z,13.10
2019-05-21T04:24:09.142Z,13.10
2019-05-21T04:26:38.578Z,13.00
2019-05-21T04:29:08.122Z,13.00
2019-05-21T04:31:37.655Z,13.00
2019-05-21T04:34:07.281Z,13.00
2019-05-21T04:36:36.840Z,13.00
2019-05-21T04:39:07.535Z,13.00
2019-05-21T04:41:37.150Z,13.00
2019-05-21T04:44:06.706Z,13.00
2019-05-21T04:46:36.292Z,13.00
2019-05-21T04:49:05.850Z,12.90
2019-05-21T04:51:35.404Z,12.90
2019-05-21T04:54:04.959Z,12.80
2019-05-21T04:56:34.551Z,12.80
2019-05-21T04:59:04.060Z,12.70
2019-05-21T05:01:33.654Z,12.70
2019-05-21T05:04:03.225Z,12.80
2019-05-21T05:06:32.902Z,12.70
2019-05-21T05:09:02.439Z,12.80
2019-05-21T05:11:31.971Z,12.80
2019-05-21T05:14:01.615Z,12.80
2019-05-21T05:16:34.716Z,12.70
2019-05-21T05:19:04.314Z,12.70
2019-05-21T05:21:33.967Z,12.70
2019-05-21T05:24:03.530Z,12.70
2019-05-21T05:26:33.003Z,12.70
2019-05-21T05:29:02.590Z,12.70
2019-05-21T05:31:32.173Z,12.70
2019-05-21T05:34:01.903Z,12.70
2019-05-21T05:36:31.473Z,12.70
2019-05-21T05:39:01.053Z,12.70
2019-05-21T05:41:30.692Z,12.70
2019-05-21T05:44:00.181Z,12.70
2019-05-21T05:46:29.765Z,12.70
2019-05-21T05:49:04.937Z,12.70
2019-05-21T05:54:22.232Z,12.70
2019-05-21T05:56:55.227Z,12.80
2019-05-21T05:59:29.933Z,12.80
2019-05-21T06:02:11.935Z,12.80
2019-05-21T06:05:00.485Z,12.70
2019-05-21T06:07:30.014Z,12.80
2019-05-21T06:09:59.569Z,12.80
2019-05-21T06:12:29.173Z,12.70
2019-05-21T06:14:58.745Z,12.70
2019-05-21T06:17:28.307Z,12.80
2019-05-21T06:19:57.931Z,12.80
2019-05-21T06:22:27.464Z,12.80
2019-05-21T06:24:56.867Z,12.70
2019-05-21T06:27:26.307Z,12.70
2019-05-21T06:29:55.695Z,12.70
2019-05-21T06:32:25.119Z,12.70
2019-05-21T06:34:54.574Z,12.70
2019-05-21T06:37:24.022Z,12.70
2019-05-21T06:39:53.433Z,12.70
2019-05-21T06:42:22.922Z,12.80
2019-05-21T06:47:48.130Z,12.80
2019-05-21T06:50:17.685Z,12.90
2019-05-21T06:52:47.148Z,12.90
2019-05-21T06:55:16.733Z,13.00
2019-05-21T06:57:48.063Z,13.00
2019-05-21T07:00:17.956Z,13.00
2019-05-21T07:02:47.418Z,13.00
2019-05-21T07:05:16.828Z,13.00
2019-05-21T07:07:46.281Z,12.90
2019-05-21T07:10:15.869Z,13.00
2019-05-21T07:12:45.367Z,13.00
2019-05-21T07:15:14.914Z,13.00
2019-05-21T07:17:44.308Z,13.00
2019-05-21T07:20:14.453Z,13.00
2019-05-21T07:22:43.969Z,13.00
2019-05-21T07:25:14.616Z,13.00
2019-05-21T07:27:44.302Z,13.00
2019-05-21T07:30:14.002Z,13.00
2019-05-21T07:32:43.468Z,13.00
2019-05-21T07:35:13.410Z,13.00
2019-05-21T07:37:42.832Z,13.00
2019-05-21T07:40:12.996Z,13.00
2019-05-21T07:42:42.488Z,13.00
2019-05-21T07:45:13.989Z,13.10
2019-05-21T07:47:43.129Z,13.10
2019-05-21T07:50:12.739Z,13.00
2019-05-21T07:52:42.173Z,13.00
2019-05-21T07:55:11.673Z,13.00
2019-05-21T07:57:41.159Z,13.00
2019-05-21T08:00:11.253Z,13.00
2019-05-21T08:02:40.815Z,13.00
2019-05-21T08:05:10.459Z,13.10
2019-05-21T08:07:39.880Z,13.20
2019-05-21T08:10:09.538Z,13.20
2019-05-21T08:13:04.079Z,13.20
2019-05-21T08:15:33.511Z,13.20
2019-05-21T08:18:02.978Z,13.20
2019-05-21T08:20:32.436Z,13.20
2019-05-21T08:23:01.890Z,13.30
2019-05-21T08:25:31.272Z,13.30
2019-05-21T08:28:00.723Z,13.30
2019-05-21T08:30:30.106Z,13.40
2019-05-21T08:32:59.661Z,13.40
2019-05-21T08:35:29.073Z,13.40
2019-05-21T08:37:58.521Z,13.40
2019-05-21T08:40:27.972Z,13.50
2019-05-21T08:42:57.427Z,13.50
2019-05-21T08:45:26.872Z,13.60
2019-05-21T08:47:56.298Z,13.60
2019-05-21T08:50:25.690Z,13.60
2019-05-21T08:52:55.109Z,13.50
2019-05-21T08:55:24.550Z,13.50
2019-05-21T08:58:06.216Z,13.50
2019-05-21T09:00:25.499Z,13.50
2019-05-21T09:02:54.948Z,13.50
2019-05-21T09:05:24.406Z,13.50
2019-05-21T09:07:54.255Z,13.60
2019-05-21T09:10:23.680Z,13.60
2019-05-21T09:12:53.188Z,13.60
2019-05-21T09:15:22.758Z,13.70
2019-05-21T09:17:52.202Z,13.70
2019-05-21T09:20:21.857Z,13.70
2019-05-21T09:22:51.402Z,13.70
2019-05-21T09:25:20.805Z,13.70
2019-05-21T09:27:50.212Z,13.70
2019-05-21T09:30:20.627Z,13.70
2019-05-21T09:32:50.086Z,13.60
2019-05-21T09:35:19.665Z,13.60
2019-05-21T09:37:49.135Z,13.60
2019-05-21T09:40:21.378Z,13.60
2019-05-21T09:42:50.865Z,13.60
2019-05-21T09:45:20.433Z,13.60
2019-05-21T09:47:49.862Z,13.70
2019-05-21T09:50:19.326Z,13.70
2019-05-21T09:52:48.752Z,13.70
2019-05-21T09:55:18.209Z,13.70
2019-05-21T09:58:06.679Z,13.60
2019-05-21T10:00:53.945Z,13.60
2019-05-21T10:03:25.343Z,13.50
2019-05-21T10:05:54.789Z,13.60
2019-05-21T10:08:24.278Z,13.60
2019-05-21T10:10:53.697Z,13.60
2019-05-21T10:13:23.108Z,13.60
2019-05-21T10:15:52.677Z,13.50
2019-05-21T10:18:22.098Z,13.50
2019-05-21T10:20:51.427Z,13.50
2019-05-21T10:23:20.900Z,13.60
2019-05-21T10:25:50.369Z,13.60
2019-05-21T10:28:19.763Z,13.60
2019-05-21T10:30:49.210Z,13.70
2019-05-21T10:33:18.670Z,13.70
2019-05-21T10:35:48.100Z,13.80
2019-05-21T10:38:18.024Z,13.80
2019-05-21T10:40:47.509Z,13.80
2019-05-21T10:43:17.030Z,13.80
2019-05-21T10:45:46.498Z,13.80
2019-05-21T10:48:15.953Z,13.80
2019-05-21T10:50:45.448Z,13.80
2019-05-21T10:56:14.671Z,13.90
2019-05-21T10:58:44.214Z,14.00
2019-05-21T11:01:19.881Z,14.00
2019-05-21T11:04:07.269Z,14.10
2019-05-21T11:06:36.857Z,14.20
2019-05-21T11:09:10.328Z,14.20
2019-05-21T11:11:39.815Z,14.30
2019-05-21T11:14:09.453Z,14.20
2019-05-21T11:19:35.014Z,14.10
2019-05-21T11:22:04.480Z,14.00
2019-05-21T11:24:33.937Z,14.00
2019-05-21T11:27:04.907Z,14.00
2019-05-21T11:29:34.862Z,14.00
2019-05-21T11:32:04.320Z,14.10
2019-05-21T11:34:34.032Z,14.00
2019-05-21T11:37:03.547Z,14.10
2019-05-21T11:42:32.323Z,14.10
2019-05-21T11:45:01.786Z,14.10
2019-05-21T11:47:31.244Z,14.10
2019-05-21T11:50:00.639Z,14.10
2019-05-21T11:52:30.088Z,14.10
2019-05-21T11:54:59.598Z,14.10
2019-05-21T11:57:29.092Z,14.10
2019-05-21T11:59:58.525Z,14.10
2019-05-21T12:02:28.096Z,14.20
2019-05-21T12:04:57.644Z,14.10
2019-05-21T12:07:27.052Z,14.20
2019-05-21T12:09:56.476Z,14.20
2019-05-21T12:12:25.944Z,14.30
2019-05-21T12:14:55.405Z,14.30
2019-05-21T12:17:24.813Z,14.40
2019-05-21T12:19:54.256Z,14.40
2019-05-21T12:22:23.636Z,14.50
2019-05-21T12:24:53.120Z,14.40
2019-05-21T12:27:25.346Z,14.40
2019-05-21T12:29:54.799Z,14.30
2019-05-21T12:32:24.266Z,14.30
2019-05-21T12:34:53.681Z,14.30
2019-05-21T12:37:23.137Z,14.30
2019-05-21T12:39:52.603Z,14.40
2019-05-21T12:42:22.075Z,14.50
2019-05-21T12:44:51.514Z,14.30
2019-05-21T12:47:20.990Z,14.40
2019-05-21T12:49:50.483Z,14.40
2019-05-21T12:52:19.991Z,14.40
2019-05-21T12:54:49.528Z,14.40
2019-05-21T12:57:18.999Z,14.50
2019-05-21T12:59:48.484Z,14.50
2019-05-21T13:02:17.968Z,14.50
2019-05-21T13:04:47.667Z,14.60
2019-05-21T13:07:17.141Z,14.60
2019-05-21T13:09:46.583Z,14.60
2019-05-21T13:12:16.133Z,14.60
2019-05-21T13:14:45.688Z,14.60
2019-05-21T13:17:15.205Z,14.60
2019-05-21T13:19:44.662Z,14.70
2019-05-21T13:22:14.147Z,14.70
2019-05-21T13:24:43.636Z,14.80
2019-05-21T13:27:13.124Z,14.70
2019-05-21T13:29:42.578Z,14.60
2019-05-21T13:32:12.062Z,14.70
2019-05-21T13:34:41.524Z,14.70
2019-05-21T13:37:10.942Z,14.70
2019-05-21T13:39:49.427Z,14.70
2019-05-21T13:42:11.547Z,14.80
2019-05-21T13:44:40.980Z,14.80
2019-05-21T13:47:10.423Z,14.80
2019-05-21T13:49:39.923Z,14.80
2019-05-21T13:52:09.420Z,14.90
2019-05-21T13:54:38.865Z,15.00
2019-05-21T13:57:08.321Z,15.10
2019-05-21T13:59:37.905Z,15.10
2019-05-21T14:02:08.963Z,15.00
2019-05-21T14:04:38.485Z,14.90
2019-05-21T14:07:07.976Z,14.80
2019-05-21T14:09:37.442Z,14.80
2019-05-21T14:12:07.302Z,14.80
2019-05-21T14:14:36.729Z,14.90
2019-05-21T14:17:06.190Z,15.00
2019-05-21T14:19:35.739Z,15.00
2019-05-21T14:22:05.221Z,15.00
2019-05-21T14:24:34.677Z,15.00
2019-05-21T14:27:07.622Z,14.90
2019-05-21T14:29:37.031Z,14.80
2019-05-21T14:32:06.659Z,14.80
2019-05-21T14:34:36.171Z,14.70
2019-05-21T14:37:05.679Z,14.70
2019-05-21T14:39:35.116Z,14.70
2019-05-21T14:42:04.709Z,14.60
2019-05-21T14:44:34.122Z,14.60
2019-05-21T14:47:03.628Z,14.60
2019-05-21T14:49:33.082Z,14.60
2019-05-21T14:52:02.551Z,14.60
2019-05-21T14:54:31.952Z,14.60
2019-05-21T14:57:03.054Z,14.70
2019-05-21T14:59:32.498Z,14.70
2019-05-21T15:02:01.992Z,14.80
2019-05-21T15:04:31.616Z,14.90
2019-05-21T15:07:01.659Z,14.90
2019-05-21T15:09:31.086Z,14.90
2019-05-21T15:12:00.550Z,15.00
2019-05-21T15:14:30.058Z,14.80
2019-05-21T15:16:59.572Z,14.80
2019-05-21T15:19:29.055Z,14.80
2019-05-21T15:21:58.598Z,14.70
2019-05-21T15:24:28.463Z,14.80
2019-05-21T15:26:58.267Z,14.90
2019-05-21T15:29:28.241Z,14.80
2019-05-21T15:31:58.349Z,14.80
2019-05-21T15:34:27.797Z,14.80
2019-05-21T15:36:57.253Z,14.70
2019-05-21T15:39:28.556Z,14.70
2019-05-21T15:41:57.984Z,14.70
2019-05-21T15:44:27.466Z,14.80
2019-05-21T15:46:56.954Z,14.80
2019-05-21T15:49:35.676Z,14.70
2019-05-21T15:51:57.574Z,14.70
2019-05-21T15:54:27.126Z,14.60
2019-05-21T15:56:56.596Z,14.60
2019-05-21T15:59:26.070Z,14.50
2019-05-21T16:02:14.639Z,14.60
2019-05-21T16:04:44.121Z,14.50
2019-05-21T16:07:13.595Z,14.60
2019-05-21T16:09:45.691Z,14.60
2019-05-21T16:12:15.129Z,14.50
2019-05-21T16:14:44.610Z,14.60
2019-05-21T16:17:14.060Z,14.60
2019-05-21T16:19:43.443Z,14.60
2019-05-21T16:22:12.871Z,14.50
2019-05-21T16:24:42.411Z,14.60
2019-05-21T16:27:11.842Z,14.50
2019-05-21T16:29:41.297Z,14.40
2019-05-21T16:32:10.729Z,14.20
2019-05-21T16:34:40.206Z,14.30
2019-05-21T16:37:09.806Z,14.20
2019-05-21T16:39:41.568Z,14.20
2019-05-21T16:42:11.082Z,14.10
2019-05-21T16:44:40.491Z,14.10
2019-05-21T16:47:09.914Z,14.10
2019-05-21T16:49:39.442Z,14.10
2019-05-21T16:52:08.985Z,14.10
2019-05-21T16:54:38.413Z,14.10
2019-05-21T16:57:07.848Z,14.00
2019-05-21T16:59:37.247Z,13.90
2019-05-21T17:02:06.854Z,13.80
2019-05-21T17:04:36.290Z,13.70
2019-05-21T17:07:05.755Z,13.70
2019-05-21T17:09:35.167Z,13.70
2019-05-21T17:12:04.627Z,13.60
2019-05-21T17:14:34.089Z,13.60
2019-05-21T17:17:03.537Z,13.60
2019-05-21T17:19:33.087Z,13.60
2019-05-21T17:22:02.474Z,13.60
2019-05-21T17:24:31.924Z,13.70
2019-05-21T17:27:01.466Z,13.70
2019-05-21T17:29:30.895Z,13.70
2019-05-21T17:32:00.334Z,13.70
2019-05-21T17:34:29.813Z,13.60
2019-05-21T17:36:59.300Z,13.60
2019-05-21T17:39:28.839Z,13.60
2019-05-21T17:41:58.326Z,13.60
2019-05-21T17:44:27.796Z,13.60
2019-05-21T17:46:57.243Z,13.50
2019-05-21T17:49:26.871Z,13.50
2019-05-21T17:51:56.394Z,13.50
2019-05-21T17:54:25.834Z,13.50
2019-05-21T17:56:55.467Z,13.50
2019-05-21T17:59:24.947Z,13.60
2019-05-21T18:01:54.930Z,13.50
2019-05-21T18:04:26.043Z,13.50
2019-05-21T18:06:56.057Z,13.40
2019-05-21T18:09:26.044Z,13.40
2019-05-21T18:11:55.484Z,13.30
2019-05-21T18:14:25.632Z,13.30
2019-05-21T18:16:55.077Z,13.30
2019-05-21T18:19:24.585Z,13.30
2019-05-21T18:21:54.173Z,13.30
2019-05-21T18:24:23.822Z,13.20
2019-05-21T18:26:53.392Z,13.20
2019-05-21T18:29:22.887Z,13.20
2019-05-21T18:31:52.500Z,13.20
2019-05-21T18:34:22.034Z,13.20
2019-05-21T18:36:51.482Z,13.10
2019-05-21T18:39:21.348Z,13.10
2019-05-21T18:41:50.814Z,13.10
2019-05-21T18:44:20.264Z,13.00
2019-05-21T18:46:49.737Z,13.00
2019-05-21T18:49:19.251Z,13.00
2019-05-21T18:51:48.730Z,13.00
2019-05-21T18:57:17.232Z,12.90
2019-05-21T18:59:46.674Z,13.00
2019-05-21T19:02:16.514Z,13.00
2019-05-21T19:07:31.873Z,13.00
2019-05-21T19:10:01.693Z,12.90
2019-05-21T19:12:37.798Z,12.90
2019-05-21T19:15:02.661Z,12.80
2019-05-21T19:17:35.650Z,12.80
2019-05-21T19:20:03.458Z,12.80
2019-05-21T19:22:34.770Z,12.70
2019-05-21T19:25:04.893Z,12.80
2019-05-21T19:27:34.805Z,12.80
2019-05-21T19:30:06.089Z,12.90
2019-05-21T19:32:35.616Z,12.90
2019-05-21T19:35:05.504Z,12.90
2019-05-21T19:37:35.114Z,12.90
2019-05-21T19:40:04.794Z,12.80
2019-05-21T19:42:34.314Z,12.80
2019-05-21T19:45:04.448Z,12.70
2019-05-21T19:47:33.937Z,12.70
2019-05-21T19:50:03.506Z,12.70
2019-05-21T19:52:33.146Z,12.70
2019-05-21T19:55:06.513Z,12.70
2019-05-21T19:57:49.890Z,12.70
2019-05-21T20:00:22.165Z,12.70
2019-05-21T20:02:52.299Z,12.70
2019-05-21T20:05:22.117Z,12.70
2019-05-21T20:07:51.718Z,12.60
2019-05-21T20:10:21.361Z,12.70
2019-05-21T20:12:50.906Z,12.70
2019-05-21T20:15:20.433Z,12.80
2019-05-21T20:17:51.073Z,12.80
2019-05-21T20:20:23.718Z,12.80
2019-05-21T20:22:53.487Z,12.70
2019-05-21T20:25:24.074Z,12.70
2019-05-21T20:27:54.134Z,12.70
2019-05-21T20:30:26.519Z,12.60
2019-05-21T20:32:57.421Z,12.70
2019-05-21T20:38:27.442Z,12.80
2019-05-21T20:40:57.338Z,12.80
2019-05-21T20:43:27.105Z,12.80
2019-05-21T20:45:57.976Z,12.90
2019-05-21T20:48:32.605Z,12.90
2019-05-21T20:51:04.407Z,12.90
2019-05-21T20:53:34.840Z,12.90
2019-05-21T20:56:04.920Z,12.90
2019-05-21T20:58:34.778Z,12.90
2019-05-21T21:01:05.805Z,12.80
2019-05-21T21:03:35.574Z,12.80
2019-05-21T21:06:06.268Z,12.80
2019-05-21T21:08:36.562Z,12.80
2019-05-21T21:11:07.192Z,12.80
2019-05-21T21:13:37.001Z,12.80
2019-05-21T21:16:06.588Z,12.80
2019-05-21T21:18:36.201Z,12.80
2019-05-21T21:21:05.684Z,12.80
2019-05-21T21:23:35.442Z,12.80
2019-05-21T21:26:05.817Z,12.80
2019-05-21T21:28:35.297Z,12.70
2019-05-21T21:31:05.931Z,12.70
2019-05-21T21:33:54.871Z,12.70
2019-05-21T21:36:24.301Z,12.70
2019-05-21T21:38:53.834Z,12.70
2019-05-21T21:41:24.490Z,12.70
2019-05-21T21:43:54.047Z,12.70
2019-05-21T21:46:23.514Z,12.70
2019-05-21T21:48:53.054Z,12.70
2019-05-21T21:51:22.596Z,12.70
2019-05-21T21:53:52.538Z,12.70
2019-05-21T21:56:21.964Z,12.70
2019-05-21T22:04:36.504Z,12.70
2019-05-21T22:07:07.121Z,12.70
2019-05-21T22:09:38.699Z,12.60
2019-05-21T22:12:12.418Z,12.70
2019-05-21T22:14:50.198Z,12.70
2019-05-21T22:17:15.091Z,12.60
2019-05-21T22:19:45.177Z,12.60
2019-05-21T22:22:14.652Z,12.50
2019-05-21T22:24:44.204Z,12.50
2019-05-21T22:27:13.663Z,12.50
2019-05-21T22:29:43.192Z,12.50
2019-05-21T22:32:12.706Z,12.50
2019-05-21T22:34:42.165Z,12.50
2019-05-21T22:37:14.928Z,12.50
2019-05-21T22:39:45.729Z,12.40
2019-05-21T22:42:15.868Z,12.50
2019-05-21T22:44:45.945Z,12.50
2019-05-21T22:47:15.829Z,12.60
2019-05-21T22:49:45.235Z,12.60
2019-05-21T22:52:15.225Z,12.60
2019-05-21T22:54:44.639Z,12.60
2019-05-21T22:57:14.128Z,12.60
2019-05-21T22:59:43.567Z,12.60
2019-05-21T23:02:17.733Z,12.60
2019-05-21T23:04:47.233Z,12.60
2019-05-21T23:07:16.885Z,12.50
2019-05-21T23:09:46.313Z,12.50
2019-05-21T23:12:16.470Z,12.40
2019-05-21T23:14:45.897Z,12.40
2019-05-21T23:17:15.483Z,12.40
2019-05-21T23:19:45.061Z,12.40
2019-05-21T23:22:16.331Z,12.50
2019-05-21T23:24:46.342Z,12.50
2019-05-21T23:27:17.667Z,12.50
2019-05-21T23:29:47.228Z,12.50
2019-05-21T23:32:16.946Z,12.60
2019-05-21T23:34:47.504Z,12.60
2019-05-21T23:37:21.902Z,12.60
2019-05-21T23:39:52.904Z,12.50
2019-05-21T23:42:29.651Z,12.50
2019-05-21T23:44:54.021Z,12.50
2019-05-21T23:47:23.464Z,12.50
2019-05-21T23:49:53.715Z,12.50
2019-05-21T23:52:24.165Z,12.50
2019-05-21T23:54:53.653Z,12.50
2019-05-21T23:57:28.074Z,12.50
2019-05-21T23:59:57.597Z,12.40
